createdAt,value
2019-05-15T00:00:19.285Z,95407.26
2019-05-15T00:02:48.227Z,95403.88
2019-05-15T00:05:18.813Z,95400.50
2019-05-15T00:07:48.365Z,95398.39
2019-05-15T00:10:18.217Z,95401.78
2019-05-15T00:12:48.785Z,95394.12
2019-05-15T00:15:18.267Z,95389.91
2019-05-15T00:17:48.506Z,95392.45
2019-05-15T00:20:20.100Z,95388.24
2019-05-15T00:22:48.435Z,95383.14
2019-05-15T00:25:18.860Z,95384.02
2019-05-15T00:27:49.180Z,95376.81
2019-05-15T00:30:19.976Z,95380.61
2019-05-15T00:32:49.627Z,95373.41
2019-05-15T00:35:18.570Z,95368.73
2019-05-15T00:37:49.257Z,95369.17
2019-05-15T00:40:18.768Z,95368.33
2019-05-15T00:42:48.797Z,95362.84
2019-05-15T00:45:18.727Z,95352.25
2019-05-15T00:47:48.745Z,95351.41
2019-05-15T00:50:18.349Z,95348.42
2019-05-15T00:52:48.490Z,95346.29
2019-05-15T00:55:19.058Z,95343.75
2019-05-15T00:57:48.638Z,95340.78
2019-05-15T01:00:38.209Z,95338.67
2019-05-15T01:03:08.827Z,95339.94
2019-05-15T01:05:38.749Z,95336.97
2019-05-15T01:08:08.270Z,95336.13
2019-05-15T01:10:38.930Z,95336.55
2019-05-15T01:13:08.448Z,95332.75
2019-05-15T01:15:38.657Z,95335.70
2019-05-15T01:18:09.361Z,95331.03
2019-05-15T01:20:39.052Z,95322.97
2019-05-15T01:23:09.007Z,95326.77
2019-05-15T01:25:39.333Z,95323.83
2019-05-15T01:28:09.329Z,95321.30
2019-05-15T01:30:39.299Z,95326.77
2019-05-15T01:33:08.624Z,95320.87
2019-05-15T01:35:38.359Z,95317.05
2019-05-15T01:38:08.159Z,95314.94
2019-05-15T01:40:38.614Z,95307.74
2019-05-15T01:43:09.027Z,95306.03
2019-05-15T01:45:39.451Z,95308.58
2019-05-15T01:48:08.374Z,95301.39
2019-05-15T01:50:38.733Z,95297.17
2019-05-15T01:53:08.218Z,95295.47
2019-05-15T01:55:39.493Z,95281.91
2019-05-15T01:58:09.029Z,95284.45
2019-05-15T02:00:39.275Z,95287.00
2019-05-15T02:03:09.801Z,95289.52
2019-05-15T02:05:39.139Z,95287.84
2019-05-15T02:08:08.494Z,95277.25
2019-05-15T02:10:39.105Z,95282.34
2019-05-15T02:13:08.698Z,95278.52
2019-05-15T02:15:39.521Z,95285.72
2019-05-15T02:18:08.653Z,95274.30
2019-05-15T02:20:39.038Z,95271.73
2019-05-15T02:23:11.625Z,95275.13
2019-05-15T02:25:38.909Z,95275.56
2019-05-15T02:28:09.365Z,95272.16
2019-05-15T02:30:40.552Z,95272.59
2019-05-15T02:33:10.681Z,95263.70
2019-05-15T02:35:39.576Z,95260.73
2019-05-15T02:38:10.353Z,95256.52
2019-05-15T02:40:40.526Z,95256.52
2019-05-15T02:43:10.440Z,95258.20
2019-05-15T02:45:42.125Z,95255.66
2019-05-15T02:48:09.833Z,95257.77
2019-05-15T02:50:39.871Z,95255.24
2019-05-15T02:53:09.813Z,95254.80
2019-05-15T02:55:40.243Z,95253.97
2019-05-15T02:58:10.996Z,95246.77
2019-05-15T03:00:47.573Z,95237.86
2019-05-15T03:03:10.453Z,95235.75
2019-05-15T03:05:40.796Z,95236.20
2019-05-15T03:08:09.908Z,95239.58
2019-05-15T03:10:40.754Z,95245.91
2019-05-15T03:13:10.242Z,95244.22
2019-05-15T03:15:40.470Z,95252.28
2019-05-15T03:18:10.036Z,95252.27
2019-05-15T03:20:39.413Z,95257.34
2019-05-15T03:23:09.716Z,95248.88
2019-05-15T03:25:40.200Z,95242.93
2019-05-15T03:28:11.276Z,95233.19
2019-05-15T03:31:13.432Z,95223.89
2019-05-15T03:33:18.758Z,95230.23
2019-05-15T03:35:43.361Z,95221.77
2019-05-15T03:38:11.179Z,95223.88
2019-05-15T03:40:40.116Z,95219.23
2019-05-15T03:43:09.231Z,95207.37
2019-05-15T03:45:40.511Z,95215.00
2019-05-15T03:48:09.517Z,95215.42
2019-05-15T03:50:40.164Z,95209.91
2019-05-15T03:53:10.360Z,95210.36
2019-05-15T03:55:41.117Z,95207.41
2019-05-15T03:58:10.475Z,95217.13
2019-05-15T04:00:40.123Z,95220.95
2019-05-15T04:03:10.805Z,95215.86
2019-05-15T04:05:39.769Z,95219.70
2019-05-15T04:08:10.945Z,95213.77
2019-05-15T04:10:39.904Z,95214.18
2019-05-15T04:13:09.736Z,95205.29
2019-05-15T04:15:39.981Z,95207.42
2019-05-15T04:18:09.780Z,95208.27
2019-05-15T04:20:40.438Z,95207.42
2019-05-15T04:23:10.139Z,95218.88
2019-05-15T04:25:41.560Z,95219.28
2019-05-15T04:28:12.396Z,95216.31
2019-05-15T04:30:40.976Z,95214.61
2019-05-15T04:33:10.050Z,95213.78
2019-05-15T04:35:40.055Z,95207.86
2019-05-15T04:38:09.704Z,95209.11
2019-05-15T04:40:39.770Z,95211.67
2019-05-15T04:43:10.584Z,95204.04
2019-05-15T04:45:39.597Z,95204.04
2019-05-15T04:48:10.130Z,95202.78
2019-05-15T04:50:40.442Z,95195.57
2019-05-15T04:53:10.568Z,95188.80
2019-05-15T04:55:40.674Z,95187.52
2019-05-15T04:58:10.385Z,95183.71
2019-05-15T05:00:53.878Z,95182.03
2019-05-15T05:03:22.696Z,95185.00
2019-05-15T05:05:52.074Z,95182.88
2019-05-15T05:08:21.120Z,95182.88
2019-05-15T05:10:50.470Z,95182.47
2019-05-15T05:13:20.111Z,95176.52
2019-05-15T05:15:50.349Z,95181.59
2019-05-15T05:18:19.845Z,95194.30
2019-05-15T05:20:48.965Z,95190.08
2019-05-15T05:23:19.224Z,95185.41
2019-05-15T05:25:49.111Z,95196.02
2019-05-15T05:28:19.422Z,95190.92
2019-05-15T05:30:48.757Z,95185.02
2019-05-15T05:33:18.496Z,95181.66
2019-05-15T05:35:48.526Z,95186.31
2019-05-15T05:38:19.311Z,95179.13
2019-05-15T05:40:49.788Z,95179.13
2019-05-15T05:43:19.203Z,95177.84
2019-05-15T05:45:49.124Z,95176.57
2019-05-15T05:48:19.163Z,95173.61
2019-05-15T05:50:49.985Z,95174.02
2019-05-15T05:53:21.297Z,95168.09
2019-05-15T05:55:53.010Z,95175.28
2019-05-15T05:58:20.042Z,95168.51
2019-05-15T06:00:49.584Z,95167.25
2019-05-15T06:03:19.538Z,95176.13
2019-05-15T06:05:49.483Z,95169.80
2019-05-15T06:08:19.721Z,95164.70
2019-05-15T06:10:49.619Z,95167.66
2019-05-15T06:13:19.357Z,95174.86
2019-05-15T06:15:49.107Z,95174.44
2019-05-15T06:18:19.763Z,95183.75
2019-05-15T06:20:49.348Z,95190.09
2019-05-15T06:23:23.533Z,95188.83
2019-05-15T06:25:49.979Z,95196.45
2019-05-15T06:28:20.156Z,95198.98
2019-05-15T06:30:49.139Z,95200.28
2019-05-15T06:33:18.812Z,95199.87
2019-05-15T06:35:48.967Z,95198.58
2019-05-15T06:38:19.652Z,95197.33
2019-05-15T06:40:49.311Z,95193.06
2019-05-15T06:43:19.229Z,95190.52
2019-05-15T06:45:49.047Z,95192.21
2019-05-15T06:48:18.469Z,95193.08
2019-05-15T06:50:48.981Z,95180.77
2019-05-15T06:53:19.258Z,95173.13
2019-05-15T06:55:49.254Z,95167.59
2019-05-15T06:58:19.116Z,95170.52
2019-05-15T07:00:48.948Z,95177.71
2019-05-15T07:03:25.269Z,95177.72
2019-05-15T07:05:50.689Z,95185.34
2019-05-15T07:08:19.900Z,95178.52
2019-05-15T07:10:48.964Z,95183.17
2019-05-15T07:13:18.486Z,95186.56
2019-05-15T07:15:49.602Z,95184.41
2019-05-15T07:18:19.854Z,95190.77
2019-05-15T07:20:49.227Z,95187.36
2019-05-15T07:23:18.874Z,95190.72
2019-05-15T07:25:49.647Z,95184.77
2019-05-15T07:28:18.496Z,95179.62
2019-05-15T07:30:49.323Z,95175.77
2019-05-15T07:33:28.107Z,95172.82
2019-05-15T07:35:49.227Z,95170.69
2019-05-15T07:38:19.407Z,95177.05
2019-05-15T07:40:57.138Z,95174.05
2019-05-15T07:43:18.455Z,95164.31
2019-05-15T07:45:54.009Z,95159.66
2019-05-15T07:48:18.740Z,95159.59
2019-05-15T07:50:49.730Z,95160.41
2019-05-15T07:53:19.753Z,95156.56
2019-05-15T07:55:49.997Z,95155.28
2019-05-15T07:58:21.376Z,95157.40
2019-05-15T08:00:49.500Z,95155.72
2019-05-15T08:03:18.632Z,95159.95
2019-05-15T08:05:58.821Z,95153.91
2019-05-15T08:08:18.403Z,95158.98
2019-05-15T08:10:48.891Z,95152.17
2019-05-15T08:13:18.607Z,95151.70
2019-05-15T08:15:48.639Z,95160.19
2019-05-15T08:18:18.800Z,95162.30
2019-05-15T08:20:48.976Z,95167.00
2019-05-15T08:23:19.290Z,95172.12
2019-05-15T08:25:48.748Z,95170.38
2019-05-15T08:28:19.139Z,95168.30
2019-05-15T08:30:49.511Z,95168.27
2019-05-15T08:33:18.855Z,95158.14
2019-05-15T08:35:51.614Z,95160.69
2019-05-15T08:38:18.606Z,95165.35
2019-05-15T08:40:48.862Z,95165.76
2019-05-15T08:43:18.384Z,95172.06
2019-05-15T08:45:49.846Z,95174.20
2019-05-15T08:48:19.011Z,95176.76
2019-05-15T08:50:48.914Z,95181.38
2019-05-15T08:53:19.474Z,95181.78
2019-05-15T08:55:48.669Z,95187.28
2019-05-15T08:58:20.166Z,95185.17
2019-05-15T09:00:52.515Z,95183.90
2019-05-15T09:03:18.434Z,95183.09
2019-05-15T09:05:48.571Z,95193.33
2019-05-15T09:08:19.311Z,95182.26
2019-05-15T09:10:50.238Z,95178.44
2019-05-15T09:13:19.101Z,95178.44
2019-05-15T09:15:48.517Z,95184.84
2019-05-15T09:18:19.947Z,95175.95
2019-05-15T09:20:49.188Z,95175.55
2019-05-15T09:23:19.374Z,95175.11
2019-05-15T09:25:49.333Z,95165.32
2019-05-15T09:28:19.251Z,95167.47
2019-05-15T09:30:48.962Z,95160.25
2019-05-15T09:33:19.951Z,95157.27
2019-05-15T09:35:49.156Z,95154.22
2019-05-15T09:38:18.729Z,95156.36
2019-05-15T09:40:50.497Z,95151.23
2019-05-15T09:43:18.459Z,95154.18
2019-05-15T09:45:49.228Z,95153.34
2019-05-15T09:48:19.724Z,95151.70
2019-05-15T09:50:49.386Z,95151.73
2019-05-15T09:53:19.219Z,95150.06
2019-05-15T09:55:49.411Z,95146.64
2019-05-15T09:58:20.728Z,95142.02
2019-05-15T10:00:51.712Z,95147.11
2019-05-15T10:03:20.289Z,95145.80
2019-05-15T10:05:49.276Z,95148.72
2019-05-15T10:08:21.261Z,95143.19
2019-05-15T10:10:49.240Z,95141.07
2019-05-15T10:13:18.805Z,95137.20
2019-05-15T10:15:50.835Z,95146.53
2019-05-15T10:18:19.500Z,95134.62
2019-05-15T10:20:48.318Z,95135.42
2019-05-15T10:23:19.647Z,95139.16
2019-05-15T10:25:48.442Z,95131.88
2019-05-15T10:28:19.221Z,95133.97
2019-05-15T10:30:49.616Z,95133.09
2019-05-15T10:33:19.674Z,95135.25
2019-05-15T10:35:49.100Z,95132.66
2019-05-15T10:38:19.328Z,95128.75
2019-05-15T10:41:01.525Z,95133.39
2019-05-15T10:43:20.574Z,95128.67
2019-05-15T10:45:50.027Z,95130.00
2019-05-15T10:48:19.195Z,95128.24
2019-05-15T10:50:47.920Z,95124.36
2019-05-15T10:53:18.847Z,95128.63
2019-05-15T10:55:49.509Z,95123.97
2019-05-15T10:58:21.753Z,95117.59
2019-05-15T11:00:49.506Z,95123.53
2019-05-15T11:03:20.052Z,95124.36
2019-05-15T11:05:49.325Z,95126.87
2019-05-15T11:08:18.969Z,95119.65
2019-05-15T11:10:49.466Z,95120.03
2019-05-15T11:13:18.922Z,95114.45
2019-05-15T11:15:49.311Z,95110.17
2019-05-15T11:18:18.195Z,95102.86
2019-05-15T11:20:48.773Z,95088.92
2019-05-15T11:23:19.962Z,95092.25
2019-05-15T11:25:48.694Z,95091.36
2019-05-15T11:28:17.614Z,95093.02
2019-05-15T11:30:49.023Z,95088.70
2019-05-15T11:33:18.839Z,95094.17
2019-05-15T11:35:58.002Z,95089.14
2019-05-15T11:38:19.515Z,95084.53
2019-05-15T11:40:49.121Z,95088.31
2019-05-15T11:43:19.751Z,95090.88
2019-05-15T11:45:48.448Z,95095.19
2019-05-15T11:48:20.146Z,95085.09
2019-05-15T11:50:47.472Z,95084.30
2019-05-15T11:53:18.957Z,95079.21
2019-05-15T11:55:48.042Z,95078.37
2019-05-15T11:58:19.003Z,95075.31
2019-05-15T12:00:49.077Z,95078.21
2019-05-15T12:03:18.854Z,95073.88
2019-05-15T12:05:48.148Z,95083.63
2019-05-15T12:08:18.665Z,95083.59
2019-05-15T12:10:49.127Z,95089.12
2019-05-15T12:13:19.023Z,95080.16
2019-05-15T12:15:48.592Z,95075.92
2019-05-15T12:18:17.313Z,95075.92
2019-05-15T12:20:48.315Z,95078.42
2019-05-15T12:23:16.207Z,95071.59
2019-05-15T12:25:44.926Z,95070.24
2019-05-15T12:28:13.443Z,95066.75
2019-05-15T12:30:42.066Z,95056.48
2019-05-15T12:33:10.617Z,95058.56
2019-05-15T12:35:40.155Z,95061.44
2019-05-15T12:38:10.299Z,95059.20
2019-05-15T13:00:43.841Z,95040.00
2019-05-15T13:03:12.488Z,95045.94
2019-05-15T13:05:41.277Z,95042.55
2019-05-15T13:08:09.808Z,95049.84
2019-05-15T13:10:38.862Z,95039.30
2019-05-15T13:13:09.596Z,95051.33
2019-05-15T13:15:41.073Z,95049.73
2019-05-15T13:18:13.874Z,95056.58
2019-05-15T13:20:39.202Z,95062.14
2019-05-15T13:23:12.091Z,95056.63
2019-05-15T13:25:40.692Z,95051.98
2019-05-15T13:28:09.365Z,95057.17
2019-05-15T13:30:41.340Z,95055.14
2019-05-15T13:33:09.880Z,95053.03
2019-05-15T13:35:38.889Z,95051.75
2019-05-15T13:38:11.013Z,95053.47
2019-05-15T13:40:42.308Z,95052.19
2019-05-15T13:43:10.305Z,95053.91
2019-05-15T13:45:39.062Z,95059.91
2019-05-15T13:48:08.828Z,95063.74
2019-05-15T13:50:40.378Z,95058.20
2019-05-15T13:53:10.943Z,95059.08
2019-05-15T13:55:42.377Z,95055.66
2019-05-15T13:58:09.256Z,95054.81
2019-05-15T14:00:39.229Z,95048.92
2019-05-15T14:03:09.036Z,95048.95
2019-05-15T14:05:38.448Z,95048.11
2019-05-15T14:08:10.356Z,95054.50
2019-05-15T14:10:39.030Z,95059.20
2019-05-15T14:13:09.197Z,95056.66
2019-05-15T14:15:38.440Z,95055.83
2019-05-15T14:18:08.589Z,95059.66
2019-05-15T14:20:38.644Z,95060.11
2019-05-15T14:23:08.651Z,95061.83
2019-05-15T14:25:38.903Z,95064.81
2019-05-15T14:28:08.974Z,95062.22
2019-05-15T14:30:37.855Z,95068.16
2019-05-15T14:33:08.526Z,95064.77
2019-05-15T14:35:38.001Z,95072.03
2019-05-15T14:38:10.164Z,95064.33
2019-05-15T14:40:37.439Z,95069.41
2019-05-15T14:43:08.947Z,95067.70
2019-05-15T14:45:38.865Z,95070.69
2019-05-15T14:48:08.837Z,95071.09
2019-05-15T14:50:38.476Z,95074.03
2019-05-15T14:53:09.549Z,95069.77
2019-05-15T14:55:43.091Z,95070.65
2019-05-15T14:58:08.473Z,95068.53
2019-05-15T15:00:41.073Z,95071.08
2019-05-15T15:03:09.853Z,95062.54
2019-05-15T15:05:38.870Z,95062.92
2019-05-15T15:08:20.314Z,95054.42
2019-05-15T15:10:38.500Z,95057.37
2019-05-15T15:13:09.323Z,95057.37
2019-05-15T15:15:38.098Z,95059.48
2019-05-15T15:18:08.377Z,95067.19
2019-05-15T15:20:37.992Z,95074.42
2019-05-15T15:23:08.515Z,95079.13
2019-05-15T15:25:39.761Z,95078.70
2019-05-15T15:28:08.477Z,95075.30
2019-05-15T15:30:38.431Z,95062.09
2019-05-15T15:33:08.649Z,95045.93
2019-05-15T15:35:38.332Z,95047.20
2019-05-15T15:38:12.687Z,95050.98
2019-05-15T15:40:38.799Z,95053.97
2019-05-15T15:43:10.028Z,95048.81
2019-05-15T15:45:39.280Z,95048.43
2019-05-15T15:48:08.604Z,95054.80
2019-05-15T15:50:38.387Z,95057.36
2019-05-15T15:53:08.986Z,95059.47
2019-05-15T15:55:38.592Z,95058.62
2019-05-15T15:58:08.729Z,95059.91
2019-05-15T16:00:38.510Z,95065.02
2019-05-15T16:03:08.523Z,95059.03
2019-05-15T16:05:38.425Z,95056.92
2019-05-15T16:08:08.592Z,95056.91
2019-05-15T16:10:38.107Z,95057.75
2019-05-15T16:13:09.114Z,95058.14
2019-05-15T16:15:38.531Z,95061.14
2019-05-15T16:18:08.961Z,95061.13
2019-05-15T16:20:39.537Z,95062.84
2019-05-15T16:23:09.167Z,95055.63
2019-05-15T16:25:38.510Z,95056.07
2019-05-15T16:28:08.803Z,95056.47
2019-05-15T16:30:50.296Z,95051.36
2019-05-15T16:33:09.912Z,95054.75
2019-05-15T16:35:39.512Z,95056.47
2019-05-15T16:38:09.301Z,95056.07
2019-05-15T16:40:38.562Z,95058.19
2019-05-15T16:43:07.533Z,95058.58
2019-05-15T16:45:38.655Z,95047.53
2019-05-15T16:48:09.259Z,95055.59
2019-05-15T16:50:38.147Z,95060.25
2019-05-15T16:53:09.253Z,95069.62
2019-05-15T16:55:38.005Z,95064.91
2019-05-15T16:58:09.129Z,95056.39
2019-05-15T17:00:38.438Z,95055.13
2019-05-15T17:03:14.399Z,95065.73
2019-05-15T17:05:38.759Z,95059.78
2019-05-15T17:08:09.158Z,95071.27
2019-05-15T17:10:38.779Z,95072.95
2019-05-15T17:13:08.768Z,95070.40
2019-05-15T17:15:38.488Z,95059.78
2019-05-15T17:18:08.915Z,95067.45
2019-05-15T17:20:38.010Z,95067.50
2019-05-15T17:23:08.652Z,95063.23
2019-05-15T17:25:38.506Z,95065.80
2019-05-15T17:28:09.170Z,95072.23
2019-05-15T17:30:38.399Z,95067.97
2019-05-15T17:33:07.250Z,95073.52
2019-05-15T17:35:37.898Z,95069.29
2019-05-15T17:38:06.112Z,95079.47
2019-05-15T17:40:34.795Z,95087.56
2019-05-15T17:43:03.323Z,95092.27
2019-05-15T17:45:32.513Z,95092.27
2019-05-15T17:48:01.313Z,95085.06
2019-05-15T17:50:44.730Z,95076.14
2019-05-15T17:53:00.427Z,95075.31
2019-05-15T17:55:30.414Z,95076.58
2019-05-15T17:58:01.104Z,95075.34
2019-05-15T18:00:29.462Z,95086.84
2019-05-15T18:02:58.176Z,95080.91
2019-05-15T18:05:28.277Z,95078.75
2019-05-15T18:07:58.412Z,95074.52
2019-05-15T18:10:27.921Z,95070.70
2019-05-15T18:12:59.609Z,95060.94
2019-05-15T18:15:28.172Z,95062.27
2019-05-15T18:17:59.235Z,95064.84
2019-05-15T18:20:29.442Z,95058.05
2019-05-15T18:23:00.374Z,95060.17
2019-05-15T18:25:28.996Z,95063.15
2019-05-15T18:27:59.296Z,95068.26
2019-05-15T18:30:28.663Z,95068.27
2019-05-15T18:32:59.290Z,95073.38
2019-05-15T18:35:29.267Z,95068.27
2019-05-15T18:37:59.054Z,95069.98
2019-05-15T18:40:28.152Z,95061.88
2019-05-15T18:42:59.117Z,95063.16
2019-05-15T18:45:29.005Z,95065.27
2019-05-15T18:47:58.673Z,95065.72
2019-05-15T18:50:29.284Z,95079.31
2019-05-15T18:52:58.663Z,95085.70
2019-05-15T18:55:27.616Z,95089.08
2019-05-15T18:57:58.507Z,95093.31
2019-05-15T19:00:29.281Z,95090.36
2019-05-15T19:02:59.428Z,95086.13
2019-05-15T19:05:28.138Z,95078.04
2019-05-15T19:07:58.017Z,95067.00
2019-05-15T19:10:28.156Z,95060.66
2019-05-15T19:12:58.175Z,95055.11
2019-05-15T19:15:28.769Z,95038.97
2019-05-15T19:17:58.617Z,95030.87
2019-05-15T19:20:28.245Z,95038.13
2019-05-15T19:22:59.024Z,95036.86
2019-05-15T19:25:28.550Z,95046.61
2019-05-15T19:27:57.912Z,95044.06
2019-05-15T19:30:28.731Z,95042.30
2019-05-15T19:32:58.969Z,95037.25
2019-05-15T19:35:28.119Z,95031.75
2019-05-15T19:37:58.509Z,95049.58
2019-05-15T19:40:28.511Z,95052.56
2019-05-15T19:43:03.775Z,95047.02
2019-05-15T19:45:30.029Z,95051.72
2019-05-15T19:47:59.010Z,95050.89
2019-05-15T19:50:28.839Z,95044.52
2019-05-15T19:52:59.081Z,95049.63
2019-05-15T19:55:28.005Z,95048.79
2019-05-15T19:57:58.522Z,95049.19
2019-05-15T20:00:28.529Z,95045.40
2019-05-15T20:02:58.241Z,95039.81
2019-05-15T20:05:28.927Z,95044.92
2019-05-15T20:07:58.925Z,95051.30
2019-05-15T20:10:29.195Z,95055.57
2019-05-15T20:12:59.842Z,95059.00
2019-05-15T20:15:28.869Z,95067.11
2019-05-15T20:17:58.116Z,95078.60
2019-05-15T20:20:28.422Z,95080.72
2019-05-15T20:22:59.954Z,95087.53
2019-05-15T20:25:27.986Z,95076.48
2019-05-15T20:27:56.776Z,95069.22
2019-05-15T20:30:25.538Z,95067.09
2019-05-15T20:32:54.125Z,95063.67
2019-05-15T20:35:22.772Z,95070.05
2019-05-15T20:37:51.864Z,95070.92
2019-05-15T20:40:20.473Z,95074.33
2019-05-15T20:42:49.090Z,95071.38
2019-05-15T20:45:18.718Z,95080.31
2019-05-15T20:47:47.596Z,95064.99
2019-05-15T20:50:19.074Z,95067.11
2019-05-15T20:52:48.724Z,95080.70
2019-05-15T20:55:16.982Z,95081.97
2019-05-15T20:57:49.788Z,95086.64
2019-05-15T21:00:19.377Z,95080.26
2019-05-15T21:02:48.553Z,95087.91
2019-05-15T21:05:18.639Z,95081.09
2019-05-15T21:07:48.685Z,95081.53
2019-05-15T21:10:21.309Z,95085.77
2019-05-15T21:12:48.897Z,95081.53
2019-05-15T21:15:21.425Z,95078.11
2019-05-15T21:17:57.548Z,95078.98
2019-05-15T21:20:18.989Z,95076.87
2019-05-15T21:22:49.335Z,95075.20
2019-05-15T21:25:19.807Z,95070.11
2019-05-15T21:27:49.019Z,95073.94
2019-05-15T21:30:19.075Z,95075.61
2019-05-15T21:32:49.434Z,95069.23
2019-05-15T21:35:18.625Z,95068.38
2019-05-15T21:37:48.910Z,95076.43
2019-05-15T21:40:18.520Z,95076.87
2019-05-15T21:42:49.142Z,95078.98
2019-05-15T21:45:18.648Z,95083.65
2019-05-15T21:47:47.267Z,95079.38
2019-05-15T21:50:19.046Z,95084.92
2019-05-15T21:52:49.516Z,95078.97
2019-05-15T21:55:18.752Z,95073.88
2019-05-15T21:57:48.283Z,95066.72
2019-05-15T22:00:28.882Z,95065.00
2019-05-15T22:02:58.571Z,95068.38
2019-05-15T22:05:28.434Z,95069.22
2019-05-15T22:07:58.749Z,95068.77
2019-05-15T22:10:28.842Z,95064.94
2019-05-15T22:12:59.665Z,95067.94
2019-05-15T22:15:29.163Z,95068.33
2019-05-15T22:17:59.704Z,95067.89
2019-05-15T22:20:30.575Z,95065.33
2019-05-15T22:22:59.615Z,95064.05
2019-05-15T22:25:28.855Z,95062.34
2019-05-15T22:27:58.020Z,95046.63
2019-05-15T22:30:29.856Z,95038.98
2019-05-15T22:32:58.934Z,95037.27
2019-05-15T22:35:29.450Z,95041.07
2019-05-15T22:37:58.537Z,95044.91
2019-05-15T22:40:29.078Z,95050.02
2019-05-15T22:42:59.113Z,95049.19
2019-05-15T22:45:28.528Z,95058.12
2019-05-15T22:47:58.583Z,95059.44
2019-05-15T22:50:28.275Z,95055.61
2019-05-15T22:52:58.706Z,95055.17
2019-05-15T22:55:28.891Z,95061.11
2019-05-15T22:57:58.656Z,95059.84
2019-05-15T23:00:29.010Z,95063.66
2019-05-15T23:02:58.206Z,95068.33
2019-05-15T23:05:31.410Z,95063.66
2019-05-15T23:07:58.909Z,95063.23
2019-05-15T23:10:29.167Z,95058.12
2019-05-15T23:12:58.962Z,95059.83
2019-05-15T23:15:28.294Z,95063.22
2019-05-15T23:17:58.195Z,95068.33
2019-05-15T23:20:28.623Z,95065.38
2019-05-15T23:22:58.512Z,95062.39
2019-05-15T23:25:28.924Z,95073.44
2019-05-15T23:27:58.340Z,95067.50
2019-05-15T23:30:28.801Z,95070.92
2019-05-15T23:32:58.266Z,95071.77
2019-05-15T23:35:37.274Z,95072.20
2019-05-15T23:37:58.238Z,95064.11
2019-05-15T23:40:28.811Z,95055.18
2019-05-15T23:42:59.814Z,95058.61
2019-05-15T23:45:28.933Z,95059.02
2019-05-15T23:47:58.120Z,95058.17
2019-05-15T23:50:28.921Z,95050.52
2019-05-15T23:52:58.406Z,95047.13
2019-05-15T23:55:28.451Z,95042.47
2019-05-15T23:57:58.502Z,95040.81
